Time;durP1;ratioP1;P1;durP2;ratioP2;P2;SDS_P1;SDS_P2;PMS_P1;PMS_P2;Temp;Humidity;BMP_temperature;BMP_pressure;BME280_temperature;BME280_humidity;BME280_pressure;Samples;Min_cycle;Max_cycle;Signal;HPM_P1;HPM_P2
2022/07/08 00:00:22;;;;;;;1.57;0.93;;;;;;;14.59;68.18;102971.19;4995890;28;20027;-85
2022/07/08 00:02:47;;;;;;;1.43;0.70;;;;;;;14.54;67.39;102975.56;4999299;28;20053;-85
2022/07/08 00:05:13;;;;;;;0.90;0.83;;;;;;;14.53;67.50;102982.50;5000002;28;20022;-85
2022/07/08 00:07:38;;;;;;;0.93;0.90;;;;;;;14.54;67.86;102980.78;4999324;28;20100;-84
2022/07/08 00:10:04;;;;;;;0.63;0.63;;;;;;;14.54;67.69;102973.78;4999124;28;20034;-84
2022/07/08 00:12:29;;;;;;;0.73;0.70;;;;;;;14.54;67.75;102976.41;4999113;28;20533;-85
2022/07/08 00:14:55;;;;;;;1.50;0.60;;;;;;;14.53;68.08;102977.28;4998710;28;20426;-85
2022/07/08 00:17:20;;;;;;;1.67;0.70;;;;;;;14.54;68.14;102979.03;4999618;28;20026;-85
2022/07/08 00:19:45;;;;;;;0.90;0.50;;;;;;;14.56;68.00;102976.44;4999828;28;20036;-84
2022/07/08 00:22:10;;;;;;;0.60;0.60;;;;;;;14.57;68.23;102983.41;4998918;28;20026;-85
2022/07/08 00:24:36;;;;;;;1.83;0.90;;;;;;;14.56;68.23;102986.88;4999632;28;20053;-85
2022/07/08 00:27:01;;;;;;;0.90;0.80;;;;;;;14.56;68.19;102979.91;4999471;28;20023;-85
2022/07/08 00:29:26;;;;;;;0.70;0.60;;;;;;;14.55;68.45;102974.69;4998651;28;20500;-85
2022/07/08 00:31:52;;;;;;;1.43;1.00;;;;;;;14.54;68.30;102975.56;4999595;28;20046;-84
2022/07/08 00:34:17;;;;;;;0.90;0.90;;;;;;;14.51;68.27;102972.06;4999751;28;20026;-84
2022/07/08 00:36:42;;;;;;;1.00;0.87;;;;;;;14.47;68.51;102978.13;4999349;28;20096;-85
2022/07/08 00:39:07;;;;;;;2.40;1.00;;;;;;;14.40;68.66;102976.38;4999307;28;20034;-84
2022/07/08 00:41:33;;;;;;;0.90;0.90;;;;;;;14.36;68.69;102975.50;4999660;28;20038;-85
2022/07/08 00:43:58;;;;;;;1.00;0.80;;;;;;;14.30;68.78;102979.84;4998676;28;20038;-85
2022/07/08 00:46:24;;;;;;;0.80;0.60;;;;;;;14.25;68.97;102986.75;4999545;28;20068;-85
2022/07/08 00:48:49;;;;;;;0.60;0.60;;;;;;;14.19;68.88;102978.06;4999436;28;20109;-84
2022/07/08 00:51:17;;;;;;;1.00;0.90;;;;;;;14.14;69.03;102981.53;4998891;28;20386;-84
2022/07/08 00:53:46;;;;;;;1.38;0.90;;;;;;;14.09;69.01;102986.72;4999208;28;20053;-85
2022/07/08 00:56:12;;;;;;;2.13;1.00;;;;;;;14.04;69.11;102991.03;4999023;28;20026;-84
2022/07/08 00:58:40;;;;;;;1.07;0.83;;;;;;;14.01;69.48;102991.06;4998724;28;20069;-84
2022/07/08 01:01:06;;;;;;;0.60;0.60;;;;;;;13.93;69.33;102982.28;4999292;28;20054;-85
2022/07/08 01:03:31;;;;;;;0.60;0.60;;;;;;;13.87;69.43;102986.63;4999678;28;20422;-85
2022/07/08 01:05:56;;;;;;;1.43;0.70;;;;;;;13.82;69.65;102988.31;4998482;28;20058;-84
2022/07/08 01:08:22;;;;;;;1.47;0.90;;;;;;;13.77;69.75;102984.84;4999620;28;20069;-85
2022/07/08 01:10:47;;;;;;;0.80;0.80;;;;;;;13.71;69.83;102988.28;4998705;28;20475;-84
2022/07/08 01:13:13;;;;;;;1.07;0.70;;;;;;;13.66;69.93;102987.38;4995952;28;20030;-85
2022/07/08 01:15:38;;;;;;;2.37;1.00;;;;;;;13.61;70.04;102985.59;4996557;28;20084;-85
2022/07/08 01:18:04;;;;;;;1.03;0.80;;;;;;;13.56;69.86;102982.94;4995353;28;20027;-84
2022/07/08 01:20:33;;;;;;;0.90;0.90;;;;;;;13.51;70.11;102989.91;4996244;28;20030;-84
2022/07/08 01:22:59;;;;;;;1.15;1.05;;;;;;;13.47;70.04;102985.50;4995846;28;20033;-84
2022/07/08 01:25:24;;;;;;;1.13;0.80;;;;;;;13.42;70.12;102983.72;4995144;28;20018;-85
2022/07/08 01:27:50;;;;;;;1.53;0.97;;;;;;;13.36;70.14;102982.78;4995839;28;20018;-85
2022/07/08 01:30:15;;;;;;;1.23;0.80;;;;;;;13.33;70.23;102983.63;4995954;28;20049;-85
2022/07/08 01:32:41;;;;;;;0.90;0.83;;;;;;;13.26;70.53;102980.09;4995102;28;20031;-85
2022/07/08 01:35:07;;;;;;;1.25;1.00;;;;;;;13.24;70.29;102978.34;4995641;28;20038;-84
2022/07/08 01:37:33;;;;;;;1.35;0.73;;;;;;;13.19;70.86;102982.66;4995832;28;20022;-84
2022/07/08 01:39:58;;;;;;;1.50;0.83;;;;;;;13.16;70.66;102980.91;4994866;28;20035;-85
2022/07/08 01:42:23;;;;;;;1.70;0.93;;;;;;;13.12;71.01;102969.56;4995519;28;20070;-85
2022/07/08 01:44:49;;;;;;;1.70;1.10;;;;;;;13.09;71.04;102979.13;4995392;28;20529;-84
2022/07/08 01:47:14;;;;;;;1.00;0.90;;;;;;;13.04;70.93;102988.59;4994743;28;20022;-84
2022/07/08 01:49:39;;;;;;;1.00;1.00;;;;;;;12.98;71.19;102981.59;4995460;28;20118;-84
2022/07/08 01:52:06;;;;;;;0.70;0.70;;;;;;;12.94;71.24;102974.63;4995552;28;20038;-84
2022/07/08 01:54:32;;;;;;;1.10;1.00;;;;;;;12.88;71.28;102971.97;4994906;28;20026;-84
2022/07/08 01:57:15;;;;;;;0.97;0.87;;;;;;;12.84;71.47;102963.25;4995185;28;20023;-85
2022/07/08 01:59:45;;;;;;;0.68;0.63;;;;;;;12.79;71.62;102962.31;4995490;28;20469;-84
2022/07/08 02:02:12;;;;;;;1.60;0.80;;;;;;;12.76;71.40;102965.78;4994234;28;20121;-84
2022/07/08 02:04:37;;;;;;;1.25;1.10;;;;;;;12.72;71.73;102969.19;4995522;28;20029;-84
2022/07/08 02:07:03;;;;;;;1.03;0.90;;;;;;;12.71;71.93;102975.31;4994285;28;20018;-84
2022/07/08 02:09:28;;;;;;;1.20;1.00;;;;;;;12.67;71.61;102976.13;4995240;28;20022;-85
2022/07/08 02:14:38;;;;;;;1.00;1.00;;;;;;;12.61;71.50;102979.53;4994770;28;20041;-84
2022/07/08 02:17:03;;;;;;;1.10;1.00;;;;;;;12.59;71.82;102983.84;4994728;28;20030;-84
2022/07/08 02:19:29;;;;;;;1.10;1.00;;;;;;;12.58;71.78;102981.22;4995153;28;20081;-84
2022/07/08 02:21:54;;;;;;;1.30;1.00;;;;;;;12.56;72.24;102977.72;4994010;28;20489;-84
2022/07/08 02:24:19;;;;;;;1.43;1.13;;;;;;;12.54;72.19;102982.94;4994576;28;20022;-85
2022/07/08 02:26:45;;;;;;;1.20;1.10;;;;;;;12.52;72.66;102977.69;4994857;28;20023;-84
2022/07/08 02:29:10;;;;;;;1.93;0.93;;;;;;;12.51;72.24;102988.97;4993868;28;20033;-84
2022/07/08 02:31:35;;;;;;;1.23;1.00;;;;;;;12.51;72.32;102978.53;4995091;28;20030;-84
2022/07/08 02:34:01;;;;;;;1.67;1.00;;;;;;;12.51;72.24;102985.50;4994035;28;20034;-84
2022/07/08 02:36:26;;;;;;;1.27;1.10;;;;;;;12.50;72.65;102984.59;4993875;28;20073;-84
2022/07/08 02:38:52;;;;;;;1.07;1.00;;;;;;;12.50;72.31;102987.22;4994246;28;20065;-84
2022/07/08 02:41:17;;;;;;;1.40;1.00;;;;;;;12.50;72.53;102988.97;4994821;28;20038;-84
2022/07/08 02:43:42;;;;;;;1.53;0.80;;;;;;;12.51;72.90;102990.72;4993835;28;20033;-85
2022/07/08 02:46:07;;;;;;;1.63;1.17;;;;;;;12.50;72.45;102988.97;4993937;28;20030;-84
2022/07/08 02:48:34;;;;;;;2.23;1.17;;;;;;;12.52;72.77;102993.31;4994424;28;20032;-85
2022/07/08 02:50:59;;;;;;;1.20;1.10;;;;;;;12.52;72.73;102988.09;4993244;28;20061;-84
2022/07/08 02:53:24;;;;;;;1.27;1.03;;;;;;;12.52;72.89;102993.31;4994339;28;20050;-84
2022/07/08 02:55:50;;;;;;;1.00;1.00;;;;;;;12.52;73.10;102980.28;4993863;28;20026;-84
2022/07/08 02:58:15;;;;;;;0.80;0.80;;;;;;;12.49;72.65;102972.47;4993795;28;20026;-84
2022/07/08 03:00:40;;;;;;;2.70;1.20;;;;;;;12.49;72.97;102976.78;4994240;28;20069;-84
2022/07/08 03:03:06;;;;;;;1.00;1.00;;;;;;;12.46;72.85;102988.06;4993774;28;20038;-84
2022/07/08 03:05:31;;;;;;;1.30;1.17;;;;;;;12.43;73.13;102993.22;4993650;28;20085;-84
2022/07/08 03:07:56;;;;;;;1.20;1.10;;;;;;;12.41;73.08;102997.53;4993796;28;20026;-84
2022/07/08 03:10:22;;;;;;;2.30;1.27;;;;;;;12.39;73.16;102998.38;4993285;28;20072;-84
2022/07/08 03:12:47;;;;;;;1.23;1.20;;;;;;;12.35;73.27;102990.53;4994129;28;20048;-84
2022/07/08 03:15:12;;;;;;;2.97;1.10;;;;;;;12.34;73.25;102995.72;4993842;28;20022;-84
2022/07/08 03:17:37;;;;;;;1.30;1.00;;;;;;;12.32;73.41;102985.31;4993581;28;20829;-84
2022/07/08 03:20:04;;;;;;;1.17;1.00;;;;;;;12.32;73.38;102995.72;4993848;28;20050;-84
2022/07/08 03:22:29;;;;;;;0.95;0.95;;;;;;;12.29;73.53;102989.56;4993851;28;20022;-84
2022/07/08 03:24:55;;;;;;;1.10;1.00;;;;;;;12.27;73.61;102988.72;4992779;28;20037;-84
2022/07/08 03:27:20;;;;;;;1.47;1.17;;;;;;;12.25;73.63;102988.66;4994126;28;20037;-84
2022/07/08 03:29:45;;;;;;;1.10;1.03;;;;;;;12.24;73.67;102992.13;4993584;28;20410;-84
2022/07/08 03:32:10;;;;;;;0.80;0.80;;;;;;;12.21;73.87;102986.91;4992982;28;20062;-84
2022/07/08 03:34:36;;;;;;;1.00;1.00;;;;;;;12.20;73.73;102985.16;4993208;28;20030;-84
2022/07/08 03:37:01;;;;;;;1.03;1.00;;;;;;;12.18;73.77;102992.94;4993021;28;20034;-83
2022/07/08 03:39:26;;;;;;;1.43;1.20;;;;;;;12.18;73.93;102997.28;4992957;28;20030;-84
2022/07/08 03:41:52;;;;;;;1.07;1.03;;;;;;;12.17;74.06;103000.72;4993230;28;20034;-83
2022/07/08 03:44:17;;;;;;;1.50;1.20;;;;;;;12.17;73.89;103004.19;4993451;28;20544;-84
2022/07/08 03:46:43;;;;;;;1.10;1.10;;;;;;;12.17;73.93;103001.59;4992847;28;20042;-84
2022/07/08 03:49:09;;;;;;;1.23;0.90;;;;;;;12.15;74.05;102995.50;4993231;28;20038;-84
2022/07/08 03:51:34;;;;;;;1.33;1.13;;;;;;;12.17;74.02;103000.72;4993536;28;20077;-84
2022/07/08 03:53:59;;;;;;;1.27;1.17;;;;;;;12.15;74.15;103005.91;4992816;28;20033;-84
2022/07/08 03:56:25;;;;;;;1.00;0.90;;;;;;;12.13;74.30;102998.94;4993655;28;20101;-84
2022/07/08 03:58:50;;;;;;;1.00;1.00;;;;;;;12.13;74.14;102991.13;4993412;28;20022;-84
2022/07/08 04:01:15;;;;;;;1.03;0.97;;;;;;;12.11;74.17;103003.22;4992561;28;20030;-84
2022/07/08 04:03:41;;;;;;;1.53;1.13;;;;;;;12.10;74.40;102999.78;4993805;28;20113;-85
2022/07/08 04:06:06;;;;;;;1.20;1.10;;;;;;;12.10;74.43;102994.56;4993319;28;20109;-84
2022/07/08 04:08:32;;;;;;;1.00;0.90;;;;;;;12.10;74.45;102989.34;4992987;28;20069;-84
2022/07/08 04:10:57;;;;;;;1.30;1.20;;;;;;;12.11;74.12;102998.03;4993239;28;20030;-84
2022/07/08 04:13:27;;;;;;;1.63;1.33;;;;;;;12.12;74.41;102997.16;4993449;28;20041;-84
2022/07/08 04:15:53;;;;;;;2.25;1.33;;;;;;;12.12;74.23;103002.38;4992346;28;20598;-84
2022/07/08 04:18:19;;;;;;;1.30;1.20;;;;;;;12.13;74.48;102997.22;4993313;28;20025;-84
2022/07/08 04:20:44;;;;;;;1.33;1.07;;;;;;;12.14;74.52;102998.06;4992539;28;20030;-84
2022/07/08 04:23:10;;;;;;;1.50;1.10;;;;;;;12.15;74.54;103003.31;4993174;28;20449;-84
2022/07/08 04:25:36;;;;;;;1.00;1.00;;;;;;;12.17;74.39;103001.59;4993418;28;20038;-84
2022/07/08 04:28:01;;;;;;;2.57;1.30;;;;;;;12.16;74.61;102997.22;4991932;28;20080;-84
2022/07/08 04:30:26;;;;;;;1.10;1.00;;;;;;;12.18;74.60;103005.94;4992917;28;20038;-84
2022/07/08 04:32:52;;;;;;;1.00;0.97;;;;;;;12.19;74.63;103010.28;4992911;28;20038;-84
2022/07/08 04:35:17;;;;;;;0.90;0.90;;;;;;;12.20;74.56;103001.63;4992030;28;20037;-84
2022/07/08 04:37:42;;;;;;;1.17;1.07;;;;;;;12.22;74.93;103009.44;4992878;28;20081;-84
2022/07/08 04:40:08;;;;;;;1.07;1.07;;;;;;;12.24;74.79;103007.75;4992674;28;20489;-84
2022/07/08 04:42:34;;;;;;;1.10;1.00;;;;;;;12.25;74.87;103012.09;4992580;28;20030;-84
2022/07/08 04:44:59;;;;;;;2.43;0.97;;;;;;;12.29;74.93;103013.00;4992851;28;20105;-84
2022/07/08 04:47:24;;;;;;;0.90;0.90;;;;;;;12.32;75.42;103026.97;4995500;28;20386;-84
2022/07/08 04:49:49;;;;;;;0.90;0.90;;;;;;;12.33;75.50;103025.22;4995723;28;20022;-84
2022/07/08 04:52:15;;;;;;;0.90;0.87;;;;;;;12.34;75.02;103027.81;4996380;28;20026;-84
2022/07/08 04:54:40;;;;;;;0.87;0.87;;;;;;;12.38;74.99;103028.78;4996966;28;20023;-84
2022/07/08 04:57:06;;;;;;;0.97;0.83;;;;;;;12.41;75.22;103034.00;4995829;28;20367;-84
2022/07/08 04:59:31;;;;;;;0.90;0.90;;;;;;;12.44;75.06;103036.63;4996752;28;20054;-84
2022/07/08 05:01:57;;;;;;;1.30;1.00;;;;;;;12.49;75.45;103039.28;4996544;28;20018;-84
2022/07/08 05:04:22;;;;;;;1.90;0.80;;;;;;;12.51;75.32;103041.06;4995795;28;20026;-84
2022/07/08 05:06:47;;;;;;;0.80;0.80;;;;;;;12.56;75.15;103043.72;4996077;28;20374;-85
2022/07/08 05:09:13;;;;;;;0.93;0.80;;;;;;;12.61;75.53;103039.44;4995945;28;20030;-85
2022/07/08 05:11:38;;;;;;;0.80;0.70;;;;;;;12.64;75.27;103047.31;4995635;28;20419;-85
2022/07/08 05:14:03;;;;;;;3.17;1.23;;;;;;;12.67;77.67;103049.91;4996042;28;20031;-84
2022/07/08 05:16:28;;;;;;;1.23;1.00;;;;;;;12.74;75.67;103050.00;4996263;28;20498;-84
2022/07/08 05:18:56;;;;;;;1.17;1.10;;;;;;;12.77;75.68;103050.03;4995028;28;20382;-84
2022/07/08 05:21:22;;;;;;;1.27;0.85;;;;;;;12.83;76.14;103055.31;4996229;28;20495;-84
2022/07/08 05:23:47;;;;;;;0.77;0.77;;;;;;;12.89;75.84;103057.97;4996007;28;20058;-84
2022/07/08 05:26:12;;;;;;;1.10;0.83;;;;;;;12.94;75.21;103050.22;4994965;28;20049;-85
2022/07/08 05:28:38;;;;;;;0.83;0.70;;;;;;;12.98;75.73;103051.97;4996194;28;20102;-85
2022/07/08 05:31:03;;;;;;;1.00;0.80;;;;;;;13.04;76.33;103066.81;4994817;28;20407;-84
2022/07/08 05:33:29;;;;;;;0.70;0.70;;;;;;;13.07;75.87;103066.84;4995230;28;20504;-84
2022/07/08 05:35:54;;;;;;;0.53;0.53;;;;;;;13.11;76.00;103066.03;4995457;28;20026;-85
2022/07/08 05:38:19;;;;;;;0.80;0.60;;;;;;;13.16;76.09;103072.16;4995190;28;20018;-85
2022/07/08 05:40:45;;;;;;;0.50;0.50;;;;;;;13.20;75.81;103067.84;4995589;28;20188;-85
2022/07/08 05:43:10;;;;;;;0.40;0.40;;;;;;;13.23;75.90;103060.03;4995594;28;20022;-85
2022/07/08 05:45:35;;;;;;;0.60;0.43;;;;;;;13.27;76.01;103070.50;4995137;28;20033;-85
2022/07/08 05:48:00;;;;;;;0.50;0.50;;;;;;;13.33;76.40;103072.31;4995129;28;20033;-85
2022/07/08 05:50:26;;;;;;;0.30;0.30;;;;;;;13.37;76.17;103067.97;4995590;28;20077;-85
2022/07/08 05:52:51;;;;;;;2.83;1.13;;;;;;;13.43;76.62;103075.91;4994770;28;20359;-85
2022/07/08 05:55:16;;;;;;;1.20;0.77;;;;;;;13.49;76.04;103075.94;4995370;28;20038;-85
2022/07/08 05:57:42;;;;;;;5.03;1.97;;;;;;;13.54;76.76;103073.38;4994881;28;20049;-84
2022/07/08 06:00:08;;;;;;;1.13;0.90;;;;;;;13.62;76.86;103076.94;4994429;28;20113;-85
2022/07/08 06:02:33;;;;;;;3.17;1.80;;;;;;;13.70;76.50;103076.97;4994851;28;20482;-85
2022/07/08 06:04:58;;;;;;;1.20;1.20;;;;;;;13.78;76.22;103077.03;4994921;28;20023;-85
2022/07/08 06:07:23;;;;;;;0.90;0.90;;;;;;;13.85;76.13;103086.66;4994408;28;20122;-85
2022/07/08 06:09:49;;;;;;;0.80;0.80;;;;;;;13.92;75.98;103088.44;4995324;28;20026;-85
2022/07/08 06:12:14;;;;;;;0.90;0.90;;;;;;;14.31;76.67;103086.91;4995068;28;20486;-85
2022/07/08 06:14:39;;;;;;;2.27;1.10;;;;;;;15.74;75.81;103082.00;4994288;28;20077;-85
2022/07/08 06:17:05;;;;;;;0.87;0.87;;;;;;;17.81;73.96;103079.16;4995161;28;20032;-85
2022/07/08 06:19:30;;;;;;;0.83;0.83;;;;;;;19.30;70.10;103083.41;4995206;28;20057;-85
2022/07/08 06:21:56;;;;;;;0.60;0.60;;;;;;;19.49;66.68;103083.94;4994306;28;20033;-85
2022/07/08 06:24:21;;;;;;;0.70;0.70;;;;;;;19.24;65.75;103092.28;4995110;28;20037;-85
2022/07/08 06:26:47;;;;;;;0.73;0.50;;;;;;;19.21;65.99;103097.56;4995022;28;20037;-85
2022/07/08 06:29:12;;;;;;;0.40;0.40;;;;;;;19.20;62.84;103098.47;4993567;28;20038;-86
2022/07/08 06:31:38;;;;;;;0.90;0.43;;;;;;;19.20;64.73;103093.19;4994997;28;20536;-82
2022/07/08 06:34:04;;;;;;;2.15;0.80;;;;;;;19.33;61.56;103095.63;4994444;28;20030;-89
2022/07/08 06:36:30;;;;;;;0.88;0.82;;;;;;;19.41;62.97;103083.22;4994310;28;20152;-87
2022/07/08 06:38:55;;;;;;;5.27;1.37;;;;;;;19.65;57.13;103094.22;4994766;28;20031;-87
2022/07/08 06:41:20;;;;;;;4.40;1.30;;;;;;;19.58;60.37;103089.06;4994309;28;20030;-85
2022/07/08 06:43:46;;;;;;;3.70;1.50;;;;;;;19.51;58.98;103089.19;4995102;28;20372;-89
2022/07/08 06:46:12;;;;;;;4.23;1.70;;;;;;;19.30;58.81;103088.66;5014055;28;20044;-91
2022/07/08 06:48:38;;;;;;;4.10;1.60;;;;;;;19.16;60.89;103093.28;5015370;28;20022;-92
2022/07/08 06:51:03;;;;;;;2.47;1.40;;;;;;;19.39;59.51;103090.25;5015166;28;20444;-93
2022/07/08 06:54:34;;;;;;;1.30;1.20;;;;;;;19.48;60.62;103089.25;5015141;28;20026;-93
2022/07/08 06:56:13;;;;;;;1.85;0.90;;;;;;;19.51;59.54;103099.72;5000037;28;20030;-91
2022/07/08 06:58:39;;;;;;;5.20;1.60;;;;;;;19.43;58.90;103102.50;4995519;28;20440;-91
2022/07/08 07:01:04;;;;;;;2.50;1.30;;;;;;;19.24;58.88;103100.16;4994701;28;20022;-89
2022/07/08 07:03:29;;;;;;;1.90;1.20;;;;;;;19.09;61.34;103097.75;4994370;28;20054;-89
2022/07/08 07:05:55;;;;;;;1.27;1.00;;;;;;;19.11;61.47;103103.88;4995046;28;20458;-90
2022/07/08 07:08:20;;;;;;;2.93;1.20;;;;;;;19.18;61.67;103094.97;4995443;28;20026;-90
2022/07/08 07:10:45;;;;;;;1.60;0.90;;;;;;;19.38;60.77;103097.31;4994964;28;20035;-91
2022/07/08 07:13:19;;;;;;;2.27;1.27;;;;;;;19.55;60.07;103096.13;4994574;28;20426;-89
2022/07/08 07:15:45;;;;;;;1.45;1.00;;;;;;;19.56;60.20;103103.13;4994916;28;20030;-90
2022/07/08 07:18:10;;;;;;;1.43;1.00;;;;;;;19.61;57.94;103088.13;4994611;28;20101;-89
2022/07/08 07:20:38;;;;;;;1.30;1.20;;;;;;;19.60;60.22;103089.88;4994772;28;20045;-89
2022/07/08 07:23:09;;;;;;;2.65;1.10;;;;;;;19.69;60.13;103090.66;4994171;28;20034;-89
2022/07/08 07:25:37;;;;;;;1.95;0.90;;;;;;;19.94;61.19;103092.81;4994024;28;20026;-89
2022/07/08 07:28:15;;;;;;;1.88;0.95;;;;;;;20.13;60.58;103099.50;4993765;28;20026;-88
2022/07/08 07:30:46;;;;;;;2.75;1.27;;;;;;;19.93;56.98;103091.13;5007671;28;20041;-92
2022/07/08 07:33:26;;;;;;;2.53;1.35;;;;;;;19.74;60.56;103099.31;5014411;28;20500;-93
2022/07/08 07:36:07;;;;;;;1.70;0.90;;;;;;;20.00;60.54;103100.63;5015125;28;20072;-91
2022/07/08 07:38:34;;;;;;;1.15;0.80;;;;;;;20.17;60.27;103087.97;5010123;28;20525;-91
2022/07/08 07:40:59;;;;;;;4.35;1.58;;;;;;;20.41;58.85;103098.06;4995513;28;20386;-96
2022/07/08 07:43:25;;;;;;;2.70;1.20;;;;;;;20.44;59.15;103096.22;5014557;28;20033;-95
2022/07/08 07:45:50;;;;;;;1.70;0.80;;;;;;;20.48;57.79;103097.91;5013766;28;20029;-92
2022/07/08 07:48:18;;;;;;;2.30;0.90;;;;;;;20.41;59.41;103098.91;5010732;28;20037;-91
2022/07/08 07:50:43;;;;;;;1.75;0.90;;;;;;;20.23;59.80;103100.16;5013434;28;20026;-92
2022/07/08 07:53:12;;;;;;;1.43;1.03;;;;;;;20.29;60.22;103096.53;5013762;28;20121;-92
2022/07/08 07:55:37;;;;;;;2.30;0.90;;;;;;;20.45;59.00;103099.72;5014244;28;20026;-93
2022/07/08 07:58:03;;;;;;;5.40;1.73;;;;;;;20.37;53.13;103095.50;5013433;28;20072;-92
2022/07/08 08:00:28;;;;;;;2.78;1.40;;;;;;;20.00;56.22;103092.72;5014023;28;20021;-92
2022/07/08 08:02:54;;;;;;;1.47;1.00;;;;;;;19.93;58.76;103089.34;5013455;28;20109;-95
2022/07/08 08:05:19;;;;;;;2.73;1.53;;;;;;;20.11;57.85;103096.03;5014241;28;20022;-93
2022/07/08 08:07:51;;;;;;;1.97;0.97;;;;;;;20.28;58.23;103095.69;5014114;28;20034;-94
2022/07/08 08:10:16;;;;;;;1.15;0.90;;;;;;;20.44;57.46;103093.59;5013687;28;20478;-90
2022/07/08 08:12:42;;;;;;;1.00;0.80;;;;;;;20.65;58.54;103096.66;5013236;28;20034;-87
2022/07/08 08:15:08;;;;;;;0.98;0.88;;;;;;;20.80;58.29;103093.72;5012407;28;20033;-92
2022/07/08 08:17:39;;;;;;;1.25;0.77;;;;;;;20.97;57.77;103093.34;5012725;28;20030;-88
2022/07/08 08:20:07;;;;;;;1.60;0.80;;;;;;;21.08;55.83;103098.34;5012643;28;20032;-87
2022/07/08 08:22:32;;;;;;;0.47;0.47;;;;;;;21.16;57.67;103100.78;5015241;28;20481;-86
2022/07/08 08:24:58;;;;;;;0.87;0.80;;;;;;;21.13;52.25;103101.75;5016633;28;20111;-86
2022/07/08 08:27:23;;;;;;;3.50;1.30;;;;;;;20.77;55.48;103100.84;5016116;28;20034;-86
2022/07/08 08:29:49;;;;;;;4.43;1.60;;;;;;;20.39;52.36;103105.13;5016087;28;20053;-85
2022/07/08 08:32:14;;;;;;;4.03;1.80;;;;;;;20.17;53.92;103103.78;5016535;28;20030;-86
2022/07/08 08:34:39;;;;;;;4.87;1.77;;;;;;;20.11;55.66;103101.28;5015758;28;20500;-87
2022/07/08 08:37:04;;;;;;;3.67;1.60;;;;;;;20.17;55.24;103114.34;5016320;28;20032;-85
2022/07/08 08:39:30;;;;;;;4.93;1.50;;;;;;;20.29;53.93;103097.44;5016729;28;20022;-86
2022/07/08 08:41:55;;;;;;;3.33;1.30;;;;;;;20.42;55.21;103100.66;5015717;28;20026;-85
2022/07/08 08:44:20;;;;;;;0.80;0.70;;;;;;;20.62;56.16;103102.88;5016241;28;20037;-86
2022/07/08 08:46:46;;;;;;;5.70;1.70;;;;;;;20.80;52.63;103104.28;5016485;28;20030;-86
2022/07/08 08:49:11;;;;;;;6.93;1.90;;;;;;;20.57;52.31;103096.81;5015675;28;20018;-87
2022/07/08 08:51:39;;;;;;;8.83;2.00;;;;;;;20.15;53.67;103097.69;5016352;28;20320;-86
2022/07/08 08:54:06;;;;;;;2.38;1.58;;;;;;;20.18;53.95;103097.63;5015993;28;20018;-85
2022/07/08 08:56:31;;;;;;;1.73;1.33;;;;;;;20.38;55.83;103091.06;5015465;28;20060;-86
2022/07/08 08:58:58;;;;;;;3.97;1.57;;;;;;;20.59;54.54;103084.47;5015874;28;20473;-86
2022/07/08 09:01:23;;;;;;;6.35;1.50;;;;;;;20.64;50.54;103089.66;5016126;28;20359;-86
2022/07/08 09:03:49;;;;;;;3.53;1.63;;;;;;;20.48;51.76;103084.72;5015084;28;20075;-85
2022/07/08 09:06:14;;;;;;;5.83;2.00;;;;;;;20.15;51.36;103087.13;5016362;28;20029;-87
2022/07/08 09:08:40;;;;;;;6.13;1.50;;;;;;;20.05;53.20;103089.09;5016337;28;20022;-86
2022/07/08 09:11:06;;;;;;;2.33;1.20;;;;;;;20.27;53.62;103091.31;5014826;28;20026;-86
2022/07/08 09:13:31;;;;;;;5.65;1.52;;;;;;;20.48;52.78;103083.84;5015706;28;20121;-85
2022/07/08 09:15:58;;;;;;;4.50;1.80;;;;;;;20.58;51.79;103084.53;5015850;28;20115;-86
2022/07/08 09:18:29;;;;;;;6.10;1.90;;;;;;;20.70;52.85;103078.97;5014184;28;20022;-85
2022/07/08 09:20:56;;;;;;;3.08;1.48;;;;;;;20.86;54.32;103084.78;5015373;28;20505;-85
2022/07/08 09:23:31;;;;;;;1.95;0.77;;;;;;;21.14;54.55;103084.13;5015197;28;20037;-86
2022/07/08 09:25:58;;;;;;;4.05;1.63;;;;;;;21.29;54.24;103085.50;5015651;28;20022;-86
2022/07/08 09:28:43;;;;;;;2.33;1.38;;;;;;;21.51;54.89;103084.97;5016036;28;20037;-86
2022/07/08 09:31:13;;;;;;;1.87;1.00;;;;;;;21.77;53.57;103083.44;5014611;28;20063;-85
2022/07/08 09:33:40;;;;;;;0.75;0.75;;;;;;;21.96;51.16;103087.31;5014478;28;20033;-86
2022/07/08 09:36:06;;;;;;;;;;;;;;;21.85;51.48;103081.44;5015704;28;20113;-85
2022/07/08 09:38:35;;;;;;;2.20;1.40;;;;;;;21.81;52.80;103083.31;5014443;28;19913;-86
2022/07/08 09:41:05;;;;;;;3.05;1.80;;;;;;;21.80;50.86;103081.56;5015152;28;20104;-86
2022/07/08 09:43:42;;;;;;;5.22;1.73;;;;;;;21.58;50.46;103079.47;5015365;28;20057;-86
2022/07/08 09:46:07;;;;;;;2.40;1.50;;;;;;;21.58;52.83;103082.13;5014602;28;20049;-84
2022/07/08 09:48:33;;;;;;;2.70;1.23;;;;;;;21.87;52.18;103082.28;5015614;28;20462;-85
2022/07/08 09:51:00;;;;;;;3.25;1.55;;;;;;;22.06;51.36;103078.22;5014872;28;20034;-85
2022/07/08 09:53:28;;;;;;;1.42;0.85;;;;;;;22.20;52.44;103084.88;5014506;28;20100;-85
2022/07/08 09:55:55;;;;;;;1.42;1.00;;;;;;;22.42;53.26;103078.97;5014642;28;20026;-84
2022/07/08 09:58:25;;;;;;;1.15;0.88;;;;;;;22.66;51.48;103083.53;5014190;28;20052;-85
2022/07/08 10:00:52;;;;;;;0.85;0.68;;;;;;;22.83;52.47;103085.66;5011189;28;20576;-85
2022/07/08 10:03:31;;;;;;;0.60;0.60;;;;;;;22.98;52.90;103086.06;5014948;28;20486;-86
2022/07/08 10:05:57;;;;;;;0.65;0.60;;;;;;;23.18;52.81;103079.25;5013785;28;20014;-85
2022/07/08 10:08:23;;;;;;;0.63;0.60;;;;;;;23.36;52.51;103077.78;5014967;28;20026;-86
2022/07/08 10:10:49;;;;;;;3.40;1.23;;;;;;;23.39;48.89;103086.50;5014691;28;20101;-87
2022/07/08 10:13:15;;;;;;;1.70;0.85;;;;;;;23.28;47.88;103089.53;5013795;28;20120;-88
2022/07/08 10:15:55;;;;;;;6.35;2.05;;;;;;;22.78;47.62;103090.22;5015046;28;20109;-86
2022/07/08 10:18:23;;;;;;;4.75;1.50;;;;;;;22.34;50.29;103085.34;5015042;28;20021;-86
2022/07/08 10:20:55;;;;;;;2.60;1.13;;;;;;;22.36;51.11;103088.81;5013678;28;20081;-86
2022/07/08 10:23:38;;;;;;;3.50;1.70;;;;;;;22.60;51.78;103093.44;5014845;28;20034;-86
2022/07/08 10:26:04;;;;;;;1.45;0.90;;;;;;;22.80;52.00;103092.81;5014259;28;20037;-86
2022/07/08 10:28:41;;;;;;;0.68;0.68;;;;;;;23.12;51.95;103091.78;5013799;28;20029;-86
2022/07/08 10:31:24;;;;;;;0.93;0.60;;;;;;;23.49;48.20;103086.19;5013630;28;20046;-86
2022/07/08 10:33:50;;;;;;;0.80;0.80;;;;;;;23.71;50.57;103081.00;5012796;28;20038;-85
2022/07/08 10:36:57;;;;;;;1.63;0.80;;;;;;;23.90;49.66;103079.41;5014524;28;20088;-86
2022/07/08 10:39:31;;;;;;;1.98;0.80;;;;;;;24.12;45.77;103083.09;5013486;28;20375;-87
2022/07/08 10:42:03;;;;;;;3.65;1.40;;;;;;;23.93;46.75;103069.63;5012978;28;20029;-87
2022/07/08 10:44:48;;;;;;;3.78;1.45;;;;;;;23.73;48.11;103071.22;5014023;28;20108;-87
2022/07/08 10:47:24;;;;;;;1.92;1.20;;;;;;;23.84;50.13;103070.81;5014166;28;20033;-87
2022/07/08 10:49:50;;;;;;;0.88;0.68;;;;;;;24.12;49.88;103083.94;5013333;28;20072;-87
2022/07/08 10:52:16;;;;;;;;;;;;;;;24.39;47.17;103075.88;5014251;28;20137;-86
2022/07/08 10:54:42;;;;;;;1.23;0.88;;;;;;;24.61;47.12;103070.56;5012616;28;19918;-90
2022/07/08 10:57:15;;;;;;;3.33;1.50;;;;;;;24.76;47.35;103079.78;5012754;28;20083;-84
2022/07/08 10:59:40;;;;;;;1.83;1.23;;;;;;;24.76;47.67;103069.16;5014217;28;20029;-85
2022/07/08 11:02:07;;;;;;;1.70;0.90;;;;;;;24.79;46.30;103071.66;5012702;28;20056;-86
2022/07/08 11:04:36;;;;;;;3.22;1.50;;;;;;;24.40;47.00;103074.06;5013797;28;20029;-85
2022/07/08 11:07:16;;;;;;;5.30;1.77;;;;;;;23.87;46.65;103074.22;5013481;28;20444;-86
2022/07/08 11:09:42;;;;;;;1.77;1.33;;;;;;;23.85;48.26;103072.53;5006965;28;20109;-85
2022/07/08 11:12:12;;;;;;;2.20;1.05;;;;;;;24.07;48.92;103077.97;5012529;28;20041;-84
2022/07/08 11:14:44;;;;;;;0.63;0.60;;;;;;;24.24;49.61;103074.69;5013498;28;20477;-84
2022/07/08 11:17:17;;;;;;;0.70;0.70;;;;;;;24.49;48.97;103065.75;5012458;28;20036;-84
2022/07/08 11:19:44;;;;;;;0.47;0.45;;;;;;;24.91;49.61;103066.78;5012513;28;20030;-84
2022/07/08 11:22:10;;;;;;;0.70;0.70;;;;;;;25.25;48.81;103060.91;5011421;28;20037;-85
2022/07/08 11:24:39;;;;;;;2.33;1.20;;;;;;;25.39;46.63;103065.63;5012205;28;20037;-85
2022/07/08 11:27:06;;;;;;;1.00;0.90;;;;;;;25.25;48.18;103060.91;5013344;28;20389;-85